createdAt,value
2022-12-22T00:02:07.218Z,96989.16
2022-12-22T00:04:52.711Z,96990.66
2022-12-22T00:07:38.136Z,96985.59
2022-12-22T00:10:24.146Z,96983.31
2022-12-22T00:13:09.349Z,96983.31
2022-12-22T00:15:54.790Z,96977.72
2022-12-22T00:18:40.187Z,96973.66
2022-12-22T00:21:25.546Z,96972.88
2022-12-22T00:24:11.203Z,96961.94
2022-12-22T00:26:56.526Z,96958.91
2022-12-22T00:29:42.068Z,96956.13
2022-12-22T00:32:32.712Z,96942.91
2022-12-22T00:35:18.622Z,96945.72
2022-12-22T00:38:04.276Z,96937.06
2022-12-22T00:40:49.864Z,96942.91
2022-12-22T00:43:35.259Z,96937.31
2022-12-22T00:46:22.550Z,96929.66
2022-12-22T00:49:08.381Z,96933.75
2022-12-22T00:51:53.892Z,96937.31
2022-12-22T00:54:41.544Z,96934.53
2022-12-22T00:57:38.596Z,96930.19
2022-12-22T01:00:33.039Z,96927.16
2022-12-22T01:03:18.624Z,96922.09
2022-12-22T01:06:04.193Z,96927.41
2022-12-22T01:08:50.068Z,96918.81
2022-12-22T01:11:35.622Z,96916.00
2022-12-22T01:14:21.039Z,96911.41
2022-12-22T01:17:06.485Z,96921.59
2022-12-22T01:19:51.772Z,96902.53
2022-12-22T01:22:40.201Z,96907.91
2022-12-22T01:25:35.304Z,96901.53
2022-12-22T01:28:21.559Z,96908.13
2022-12-22T01:31:07.436Z,96897.22
2022-12-22T01:33:52.508Z,96899.78
2022-12-22T01:36:38.120Z,96895.69
2022-12-22T01:39:23.656Z,96888.63
2022-12-22T01:42:09.065Z,96877.44
2022-12-22T01:44:54.551Z,96877.94
2022-12-22T01:47:46.113Z,96868.03
2022-12-22T01:50:33.117Z,96868.03
2022-12-22T01:53:20.297Z,96873.63
2022-12-22T01:56:06.509Z,96866.50
2022-12-22T01:58:57.893Z,96860.19
2022-12-22T02:01:43.861Z,96853.06
2022-12-22T02:04:29.443Z,96854.34
2022-12-22T02:07:23.115Z,96860.69
2022-12-22T02:10:32.964Z,96847.97
2022-12-22T02:13:44.045Z,96847.47
2022-12-22T02:16:53.282Z,96841.13
2022-12-22T02:20:29.333Z,96829.97
2022-12-22T02:23:36.722Z,96828.44
2022-12-22T02:26:44.030Z,96821.31
2022-12-22T02:29:31.999Z,96815.72
2022-12-22T02:32:17.845Z,96815.72
2022-12-22T02:35:03.318Z,96814.22
2022-12-22T02:38:00.933Z,96809.41
2022-12-22T02:41:11.362Z,96815.72
2022-12-22T02:44:28.257Z,96817.25
2022-12-22T02:47:34.073Z,96822.84
2022-12-22T02:50:29.151Z,96810.91
2022-12-22T02:53:15.720Z,96802.03
2022-12-22T02:56:01.358Z,96798.72
2022-12-22T02:58:50.269Z,96799.47
2022-12-22T03:01:35.843Z,96793.88
2022-12-22T03:04:21.270Z,96788.53
2022-12-22T03:07:06.507Z,96782.69
2022-12-22T03:09:52.032Z,96791.63
2022-12-22T03:12:37.552Z,96782.69
2022-12-22T03:15:23.105Z,96788.28
2022-12-22T03:18:08.535Z,96786.78
2022-12-22T03:20:53.989Z,96786.03
2022-12-22T03:23:39.702Z,96784.75
2022-12-22T03:26:06.456Z,96781.97
2022-12-22T03:28:33.254Z,96772.28
2022-12-22T03:31:05.240Z,96767.47
2022-12-22T03:33:32.991Z,96768.22
2022-12-22T03:36:00.288Z,96765.44
2022-12-22T03:38:27.139Z,96763.41
2022-12-22T03:40:53.940Z,96758.59
2022-12-22T03:43:39.448Z,96752.22
2022-12-22T03:46:25.307Z,96755.53
2022-12-22T03:49:10.361Z,96745.13
2022-12-22T03:51:46.087Z,96746.38
2022-12-22T03:54:16.252Z,96736.50
2022-12-22T03:56:43.215Z,96735.00
2022-12-22T03:59:10.673Z,96732.69
2022-12-22T04:01:41.341Z,96727.66
2022-12-22T04:04:08.961Z,96725.63
2022-12-22T04:06:35.763Z,96712.91
2022-12-22T04:09:02.951Z,96707.84
2022-12-22T04:11:48.483Z,96706.31
2022-12-22T04:14:15.709Z,96699.97
2022-12-22T04:16:42.602Z,96690.84
2022-12-22T04:19:10.151Z,96690.84
2022-12-22T04:21:37.640Z,96692.88
2022-12-22T04:24:04.842Z,96683.75
2022-12-22T04:26:32.088Z,96685.25
2022-12-22T04:28:58.886Z,96688.06
2022-12-22T04:31:25.727Z,96675.59
2022-12-22T04:33:52.539Z,96686.00
2022-12-22T04:36:19.548Z,96683.75
2022-12-22T04:38:46.393Z,96666.97
2022-12-22T04:41:13.197Z,96664.19
2022-12-22T04:43:40.063Z,96658.59
2022-12-22T04:46:07.051Z,96658.34
2022-12-22T04:48:34.659Z,96654.28
2022-12-22T04:51:01.746Z,96644.38
2022-12-22T04:53:29.954Z,96650.22
2022-12-22T04:55:59.944Z,96633.97
2022-12-22T04:58:27.223Z,96632.72
2022-12-22T05:00:54.446Z,96630.69
2022-12-22T05:03:21.720Z,96630.91
2022-12-22T05:05:48.630Z,96625.31
2022-12-22T05:08:15.411Z,96629.13
2022-12-22T05:10:42.224Z,96631.16
2022-12-22T05:13:08.999Z,96624.03
2022-12-22T05:15:36.803Z,96622.00
2022-12-22T05:18:04.756Z,96618.94
2022-12-22T05:20:32.060Z,96622.47
2022-12-22T05:22:59.033Z,96622.69
2022-12-22T05:25:29.838Z,96618.09
2022-12-22T05:27:59.793Z,96624.09
2022-12-22T05:30:26.683Z,96624.81
2022-12-22T05:32:53.531Z,96630.59
2022-12-22T05:35:20.269Z,96632.59
2022-12-22T05:37:47.032Z,96620.09
2022-12-22T05:40:13.988Z,96626.94
2022-12-22T05:42:40.798Z,96623.28
2022-12-22T05:45:21.103Z,96618.72
2022-12-22T05:47:50.857Z,96613.09
2022-12-22T05:50:21.327Z,96615.28
2022-12-22T05:52:58.448Z,96614.69
2022-12-22T05:55:25.231Z,96619.50
2022-12-22T05:57:51.987Z,96611.56
2022-12-22T06:00:19.350Z,96600.84
2022-12-22T06:02:46.280Z,96603.34
2022-12-22T06:05:15.341Z,96599.25
2022-12-22T06:07:42.167Z,96608.13
2022-12-22T06:10:12.623Z,96603.75
2022-12-22T06:12:41.317Z,96593.00
2022-12-22T06:15:10.167Z,96590.69
2022-12-22T06:17:43.997Z,96588.88
2022-12-22T06:20:13.030Z,96577.91
2022-12-22T06:22:39.868Z,96574.84
2022-12-22T06:25:06.877Z,96571.19
2022-12-22T06:27:33.718Z,96571.66
2022-12-22T06:30:00.546Z,96570.09
2022-12-22T06:32:27.408Z,96560.06
2022-12-22T06:34:54.249Z,96576.59
2022-12-22T06:37:21.099Z,96567.66
2022-12-22T06:39:47.839Z,96566.38
2022-12-22T06:42:33.352Z,96572.41
2022-12-22T06:45:00.166Z,96572.41
2022-12-22T06:47:27.025Z,96575.78
2022-12-22T06:49:53.820Z,96587.69
2022-12-22T06:52:20.571Z,96573.19
2022-12-22T06:54:47.332Z,96570.91
2022-12-22T06:57:14.379Z,96571.66
2022-12-22T06:59:41.134Z,96580.81
2022-12-22T07:02:10.436Z,96579.53
2022-12-22T07:04:37.648Z,96569.63
2022-12-22T07:07:04.429Z,96556.38
2022-12-22T07:09:31.199Z,96561.22
2022-12-22T07:11:57.987Z,96555.84
2022-12-22T07:14:24.777Z,96545.94
2022-12-22T07:16:51.675Z,96548.22
2022-12-22T07:19:18.598Z,96549.72
2022-12-22T07:21:47.443Z,96551.75
2022-12-22T07:24:14.229Z,96551.22
2022-12-22T07:26:40.990Z,96556.06
2022-12-22T07:29:07.927Z,96545.09
2022-12-22T07:31:34.819Z,96549.44
2022-12-22T07:34:01.710Z,96535.63
2022-12-22T07:36:28.458Z,96524.69
2022-12-22T07:38:55.402Z,96523.38
2022-12-22T07:41:41.379Z,96522.09
2022-12-22T07:44:08.351Z,96521.00
2022-12-22T07:46:37.770Z,96532.69
2022-12-22T07:49:24.378Z,96531.81
2022-12-22T07:51:51.834Z,96534.88
2022-12-22T07:54:19.265Z,96519.78
2022-12-22T07:56:46.807Z,96526.38
2022-12-22T07:59:14.516Z,96528.63
2022-12-22T08:01:42.137Z,96540.59
2022-12-22T08:04:10.457Z,96520.47
2022-12-22T08:06:37.953Z,96526.84
2022-12-22T08:09:06.285Z,96511.81
2022-12-22T08:11:34.582Z,96525.31
2022-12-22T08:14:02.293Z,96520.72
2022-12-22T08:16:29.629Z,96520.94
2022-12-22T08:18:57.396Z,96507.13
2022-12-22T08:21:24.487Z,96507.13
2022-12-22T08:23:51.923Z,96504.56
2022-12-22T08:26:25.315Z,96505.34
2022-12-22T08:29:15.923Z,96500.16
2022-12-22T08:31:43.829Z,96506.31
2022-12-22T08:34:14.396Z,96513.44
2022-12-22T08:36:46.986Z,96506.53
2022-12-22T08:39:15.070Z,96524.63
2022-12-22T08:41:51.520Z,96522.59
2022-12-22T08:44:24.829Z,96510.09
2022-12-22T08:46:53.180Z,96514.94
2022-12-22T08:49:20.536Z,96516.22
2022-12-22T08:51:48.049Z,96511.38
2022-12-22T08:54:15.768Z,96514.94
2022-12-22T08:56:43.146Z,96512.13
2022-12-22T08:59:10.501Z,96522.06
2022-12-22T09:01:39.418Z,96509.03
2022-12-22T09:04:09.893Z,96525.06
2022-12-22T09:06:41.142Z,96518.19
2022-12-22T09:09:10.647Z,96509.97
2022-12-22T09:11:38.751Z,96517.66
2022-12-22T09:14:06.353Z,96522.50
2022-12-22T09:16:34.299Z,96525.31
2022-12-22T09:19:01.892Z,96517.09
2022-12-22T09:21:29.560Z,96508.94
2022-12-22T09:23:57.213Z,96505.56
2022-12-22T09:26:25.387Z,96516.78
2022-12-22T09:28:52.863Z,96507.09
2022-12-22T09:31:21.819Z,96512.19
2022-12-22T09:33:49.236Z,96514.97
2022-12-22T09:36:18.481Z,96497.41
2022-12-22T09:38:45.447Z,96506.03
2022-12-22T09:41:35.007Z,96492.25
2022-12-22T09:44:13.230Z,96500.13
2022-12-22T09:46:40.905Z,96498.81
2022-12-22T09:49:08.633Z,96493.75
2022-12-22T09:51:43.005Z,96491.47
2022-12-22T09:54:12.400Z,96496.00
2022-12-22T09:56:39.710Z,96499.81
2022-12-22T09:59:20.845Z,96489.34
2022-12-22T10:02:18.756Z,96492.34
2022-12-22T10:05:28.694Z,96488.25
2022-12-22T10:08:01.735Z,96482.13
2022-12-22T10:10:31.257Z,96491.50
2022-12-22T10:13:01.656Z,96482.88
2022-12-22T10:15:38.480Z,96471.88
2022-12-22T10:18:24.260Z,96478.56
2022-12-22T10:21:08.482Z,96481.56
2022-12-22T10:23:38.810Z,96477.28
2022-12-22T10:26:28.828Z,96475.97
2022-12-22T10:29:14.257Z,96467.78
2022-12-22T10:32:02.408Z,96473.84
2022-12-22T10:34:30.130Z,96465.66
2022-12-22T10:37:01.551Z,96464.56
2022-12-22T10:39:33.146Z,96470.59
2022-12-22T10:42:08.164Z,96453.03
2022-12-22T10:44:38.302Z,96458.53
2022-12-22T10:47:21.242Z,96469.97
2022-12-22T10:52:29.578Z,96450.31
2022-12-22T10:55:19.219Z,96445.47
2022-12-22T10:57:46.367Z,96436.31
2022-12-22T11:00:28.667Z,96450.03
2022-12-22T11:02:58.879Z,96443.09
2022-12-22T11:05:26.588Z,96451.94
2022-12-22T11:07:54.207Z,96448.84
2022-12-22T11:10:33.822Z,96449.03
2022-12-22T11:13:38.272Z,96446.66
2022-12-22T11:16:11.984Z,96436.94
2022-12-22T11:18:54.845Z,96439.75
2022-12-22T11:21:27.794Z,96439.75
2022-12-22T11:24:38.349Z,96427.56
2022-12-22T11:27:27.959Z,96437.72
2022-12-22T11:30:08.101Z,96428.75
2022-12-22T11:32:34.921Z,96427.66
2022-12-22T11:35:16.973Z,96420.22
2022-12-22T11:38:02.288Z,96416.88
2022-12-22T11:40:33.587Z,96430.16
2022-12-22T11:43:18.067Z,96424.75
2022-12-22T11:46:00.253Z,96427.00
2022-12-22T11:48:46.312Z,96419.56
2022-12-22T11:51:38.214Z,96425.19
2022-12-22T11:54:25.333Z,96405.22
2022-12-22T11:57:19.522Z,96427.00
2022-12-22T12:00:01.215Z,96424.75
2022-12-22T12:03:00.283Z,96431.66
2022-12-22T12:05:48.494Z,96435.00
2022-12-22T12:08:21.644Z,96417.41
2022-12-22T12:10:54.879Z,96429.91
2022-12-22T12:13:38.950Z,96434.81
2022-12-22T12:16:05.715Z,96438.91
2022-12-22T12:18:39.874Z,96437.38
2022-12-22T12:21:18.678Z,96431.56
2022-12-22T12:24:26.498Z,96428.75
2022-12-22T12:27:18.309Z,96429.50
2022-12-22T12:30:36.487Z,96431.00
2022-12-22T12:33:01.838Z,96441.47
2022-12-22T12:35:39.989Z,96437.72
2022-12-22T12:39:06.426Z,96439.97
2022-12-22T12:41:28.108Z,96451.22
2022-12-22T12:43:56.416Z,96444.06
2022-12-22T12:46:51.459Z,96455.72
2022-12-22T12:49:36.721Z,96454.44
2022-12-22T12:52:07.751Z,96468.47
2022-12-22T12:54:47.952Z,96462.84
2022-12-22T12:57:29.795Z,96469.75
2022-12-22T12:59:59.671Z,96466.94
2022-12-22T13:02:40.111Z,96477.63
2022-12-22T13:05:13.042Z,96474.09
2022-12-22T13:08:07.597Z,96482.50
2022-12-22T13:10:36.019Z,96493.72
2022-12-22T13:13:03.474Z,96493.91
2022-12-22T13:15:38.368Z,96501.25
2022-12-22T13:18:24.007Z,96507.41
2022-12-22T13:21:18.608Z,96510.22
2022-12-22T13:24:23.345Z,96505.91
2022-12-22T13:26:47.457Z,96526.50
2022-12-22T13:29:22.683Z,96537.72
2022-12-22T13:32:04.663Z,96531.91
2022-12-22T13:34:57.652Z,96526.81
2022-12-22T13:37:28.495Z,96537.53
2022-12-22T13:40:19.286Z,96536.25
2022-12-22T13:42:49.894Z,96536.44
2022-12-22T13:45:22.819Z,96542.06
2022-12-22T13:47:50.574Z,96553.28
2022-12-22T13:50:39.034Z,96549.72
2022-12-22T13:53:09.251Z,96562.97
2022-12-22T13:55:37.228Z,96569.91
2022-12-22T13:58:21.378Z,96590.84
2022-12-22T14:01:01.275Z,96582.75
2022-12-22T14:03:58.367Z,96593.22
2022-12-22T14:06:27.616Z,96594.50
2022-12-22T14:08:55.098Z,96606.81
2022-12-22T14:11:22.092Z,96602.47
2022-12-22T14:13:49.117Z,96609.38
2022-12-22T14:16:16.154Z,96612.94
2022-12-22T14:18:43.406Z,96610.13
2022-12-22T14:21:11.906Z,96620.59
2022-12-22T14:23:41.787Z,96625.69
2022-12-22T14:26:17.448Z,96629.25
2022-12-22T14:28:50.954Z,96625.44
2022-12-22T14:31:18.436Z,96637.22
2022-12-22T14:33:56.906Z,96638.50
2022-12-22T14:36:27.650Z,96644.13
2022-12-22T14:39:03.736Z,96649.72
2022-12-22T14:41:51.510Z,96653.81
2022-12-22T14:44:22.601Z,96653.63
2022-12-22T14:47:20.256Z,96657.91
2022-12-22T14:49:50.925Z,96663.53
2022-12-22T14:52:26.933Z,96665.03
2022-12-22T14:54:55.506Z,96674.75
2022-12-22T14:57:35.308Z,96678.88
2022-12-22T15:00:22.390Z,96678.88
2022-12-22T15:03:02.055Z,96687.28
2022-12-22T15:05:38.415Z,96694.38
2022-12-22T15:08:26.516Z,96697.19
2022-12-22T15:10:53.356Z,96715.53
2022-12-22T15:13:24.110Z,96715.34
2022-12-22T15:15:52.286Z,96722.97
2022-12-22T15:18:26.098Z,96722.22
2022-12-22T15:20:53.787Z,96719.50
2022-12-22T15:23:20.701Z,96731.16
2022-12-22T15:25:47.855Z,96735.25
2022-12-22T15:28:14.823Z,96742.19
2022-12-22T15:30:42.235Z,96744.22
2022-12-22T15:33:17.814Z,96752.41
2022-12-22T15:35:45.763Z,96759.09
2022-12-22T15:38:18.579Z,96754.75
2022-12-22T15:40:45.619Z,96765.00
2022-12-22T15:43:36.629Z,96780.06
2022-12-22T15:45:59.847Z,96782.66
2022-12-22T15:48:33.121Z,96782.66
2022-12-22T15:51:02.128Z,96795.91
2022-12-22T15:53:29.514Z,96793.13
2022-12-22T15:55:58.714Z,96802.81
2022-12-22T15:58:35.553Z,96804.09
2022-12-22T16:01:02.463Z,96804.09
2022-12-22T16:03:29.418Z,96807.44
2022-12-22T16:05:56.626Z,96804.41
2022-12-22T16:08:29.823Z,96805.16
2022-12-22T16:10:56.849Z,96806.69
2022-12-22T16:13:27.495Z,96807.97
2022-12-22T16:15:57.198Z,96818.66
2022-12-22T16:18:24.541Z,96805.91
2022-12-22T16:20:52.118Z,96812.03
2022-12-22T16:23:26.820Z,96802.13
2022-12-22T16:26:00.979Z,96802.13
2022-12-22T16:28:29.106Z,96809.25
2022-12-22T16:30:55.909Z,96809.78
2022-12-22T16:33:22.718Z,96817.44
2022-12-22T16:35:50.496Z,96806.59
2022-12-22T16:38:19.286Z,96809.84
2022-12-22T16:40:49.763Z,96810.38
2022-12-22T16:46:13.734Z,96817.44
2022-12-22T16:48:44.514Z,96818.41
2022-12-22T16:51:19.382Z,96813.81
2022-12-22T16:53:46.320Z,96815.31
2022-12-22T16:56:16.913Z,96815.03
2022-12-22T16:58:44.468Z,96825.50
2022-12-22T17:01:40.123Z,96833.34
2022-12-22T17:04:14.862Z,96833.34
2022-12-22T17:06:42.498Z,96837.47
2022-12-22T17:09:19.500Z,96835.41
2022-12-22T17:11:47.925Z,96831.84
2022-12-22T17:14:33.306Z,96832.84
2022-12-22T17:17:00.228Z,96838.50
2022-12-22T17:19:27.188Z,96832.13
2022-12-22T17:21:57.159Z,96839.56
2022-12-22T17:24:28.116Z,96823.25
2022-12-22T17:27:01.198Z,96836.78
2022-12-22T17:29:28.513Z,96821.06
2022-12-22T17:31:56.980Z,96817.44
2022-12-22T17:34:24.167Z,96821.22
2022-12-22T17:36:51.506Z,96825.56
2022-12-22T17:39:23.377Z,96828.34
2022-12-22T17:41:56.191Z,96831.69
2022-12-22T17:44:24.912Z,96830.91
2022-12-22T17:46:52.126Z,96817.97
2022-12-22T17:49:22.443Z,96828.88
2022-12-22T17:51:50.426Z,96820.25
2022-12-22T17:54:22.787Z,96827.13
2022-12-22T17:56:50.176Z,96821.22
2022-12-22T17:59:17.022Z,96817.66
2022-12-22T18:01:43.987Z,96813.34
2022-12-22T18:04:11.037Z,96804.47
2022-12-22T18:06:41.747Z,96807.25
2022-12-22T18:09:18.651Z,96812.66
2022-12-22T18:11:47.308Z,96825.16
2022-12-22T18:14:15.517Z,96815.00
2022-12-22T18:16:43.446Z,96818.09
2022-12-22T18:19:10.661Z,96813.78
2022-12-22T18:21:38.043Z,96809.00
2022-12-22T18:24:06.356Z,96815.88
2022-12-22T18:26:33.379Z,96817.41
2022-12-22T18:29:01.936Z,96809.81
2022-12-22T18:31:28.975Z,96807.56
2022-12-22T18:33:55.834Z,96812.09
2022-12-22T18:36:32.734Z,96806.03
2022-12-22T18:39:01.715Z,96812.63
2022-12-22T18:41:32.974Z,96810.13
2022-12-22T18:43:59.819Z,96813.16
2022-12-22T18:46:26.802Z,96809.34
2022-12-22T18:48:57.797Z,96812.16
2022-12-22T18:51:27.658Z,96808.59
2022-12-22T18:53:55.172Z,96819.03
2022-12-22T18:56:22.211Z,96817.00
2022-12-22T18:58:49.794Z,96818.78
2022-12-22T19:01:20.595Z,96813.16
2022-12-22T19:03:48.282Z,96809.34
2022-12-22T19:06:18.496Z,96806.56
2022-12-22T19:08:47.490Z,96810.88
2022-12-22T19:11:16.736Z,96803.00
2022-12-22T19:13:50.084Z,96798.44
2022-12-22T19:16:21.664Z,96800.19
2022-12-22T19:18:48.675Z,96807.06
2022-12-22T19:21:18.213Z,96799.97
2022-12-22T19:23:45.336Z,96801.47
2022-12-22T19:26:24.083Z,96790.25
2022-12-22T19:28:53.902Z,96796.09
2022-12-22T19:31:26.764Z,96790.25
2022-12-22T19:33:55.510Z,96798.16
2022-12-22T19:36:27.445Z,96796.09
2022-12-22T19:39:04.102Z,96790.50
2022-12-22T19:41:48.873Z,96787.19
2022-12-22T19:44:20.002Z,96787.69
2022-12-22T19:46:48.602Z,96771.63
2022-12-22T19:49:18.467Z,96780.25
2022-12-22T19:51:45.654Z,96778.78
2022-12-22T19:54:12.517Z,96780.56
2022-12-22T19:56:41.217Z,96773.44
2022-12-22T19:59:26.930Z,96770.88
2022-12-22T20:01:56.327Z,96767.84
2022-12-22T20:04:23.350Z,96766.34
2022-12-22T20:06:50.392Z,96759.72
2022-12-22T20:09:17.727Z,96757.94
2022-12-22T20:11:45.035Z,96755.13
2022-12-22T20:14:18.852Z,96746.94
2022-12-22T20:16:45.969Z,96742.84
2022-12-22T20:19:14.387Z,96734.97
2022-12-22T20:21:42.291Z,96736.47
2022-12-22T20:24:20.299Z,96732.41
2022-12-22T20:26:53.448Z,96730.13
2022-12-22T20:29:21.285Z,96731.19
2022-12-22T20:31:50.372Z,96736.78
2022-12-22T20:34:17.255Z,96737.09
2022-12-22T20:36:44.507Z,96735.13
2022-12-22T20:39:14.441Z,96737.47
2022-12-22T20:41:45.692Z,96730.84
2022-12-22T20:44:15.852Z,96727.53
2022-12-22T20:46:42.873Z,96714.03
2022-12-22T20:49:15.257Z,96713.00
2022-12-22T20:51:43.479Z,96703.59
2022-12-22T20:54:14.404Z,96692.91
2022-12-22T20:56:43.733Z,96696.97
2022-12-22T20:59:19.327Z,96697.22
2022-12-22T21:01:49.237Z,96697.22
2022-12-22T21:04:17.411Z,96698.50
2022-12-22T21:06:51.027Z,96693.69
2022-12-22T21:09:18.502Z,96689.34
2022-12-22T21:11:45.642Z,96680.69
2022-12-22T21:14:13.814Z,96682.97
2022-12-22T21:16:42.331Z,96683.72
2022-12-22T21:19:16.240Z,96674.31
2022-12-22T21:21:43.798Z,96671.31
2022-12-22T21:24:10.768Z,96665.72
2022-12-22T21:26:43.317Z,96662.91
2022-12-22T21:29:17.057Z,96669.03
2022-12-22T21:31:45.129Z,96669.28
2022-12-22T21:34:12.217Z,96671.31
2022-12-22T21:36:40.579Z,96652.22
2022-12-22T21:39:20.686Z,96654.97
2022-12-22T21:42:05.031Z,96650.88
2022-12-22T21:44:34.481Z,96646.06
2022-12-22T21:47:02.150Z,96649.06
2022-12-22T21:49:31.575Z,96638.63
2022-12-22T21:51:58.788Z,96641.63
2022-12-22T21:54:26.851Z,96636.28
2022-12-22T21:56:54.427Z,96639.06
2022-12-22T21:59:22.603Z,96634.22
2022-12-22T22:01:53.702Z,96631.94
2022-12-22T22:04:21.421Z,96635.75
2022-12-22T22:06:48.458Z,96628.94
2022-12-22T22:09:15.341Z,96623.78
2022-12-22T22:12:01.694Z,96631.94
2022-12-22T22:14:29.173Z,96618.19
2022-12-22T22:16:56.217Z,96622.50
2022-12-22T22:19:23.107Z,96615.44
2022-12-22T22:21:50.005Z,96613.84
2022-12-22T22:24:16.806Z,96619.47
2022-12-22T22:26:46.129Z,96615.59
2022-12-22T22:29:14.004Z,96609.78
2022-12-22T22:31:41.395Z,96604.38
2022-12-22T22:34:09.389Z,96607.41
2022-12-22T22:36:36.287Z,96610.22
2022-12-22T22:39:03.596Z,96594.69
2022-12-22T22:41:35.206Z,96589.84
2022-12-22T22:44:04.735Z,96590.81
2022-12-22T22:46:31.656Z,96580.16
2022-12-22T22:48:58.874Z,96575.31
2022-12-22T22:51:25.962Z,96583.72
2022-12-22T22:53:52.855Z,96576.81
2022-12-22T22:56:19.985Z,96576.34
2022-12-22T22:58:46.861Z,96570.22
2022-12-22T23:01:14.128Z,96563.34
2022-12-22T23:03:43.440Z,96562.78
2022-12-22T23:06:13.243Z,96565.59
2022-12-22T23:08:40.232Z,96558.50
2022-12-22T23:11:13.547Z,96560.00
2022-12-22T23:13:41.111Z,96551.91
2022-12-22T23:16:08.340Z,96569.91
2022-12-22T23:18:35.333Z,96557.19
2022-12-22T23:21:05.744Z,96549.00
2022-12-22T23:23:34.336Z,96548.03
2022-12-22T23:26:01.472Z,96548.78
2022-12-22T23:28:28.335Z,96547.06
2022-12-22T23:30:55.267Z,96544.25
2022-12-22T23:33:22.214Z,96543.16
2022-12-22T23:35:50.640Z,96540.38
2022-12-22T23:38:19.172Z,96541.69
2022-12-22T23:40:54.876Z,96529.72
2022-12-22T23:43:22.112Z,96537.34
2022-12-22T23:45:50.400Z,96530.25
2022-12-22T23:48:17.326Z,96530.47
2022-12-22T23:50:48.406Z,96526.34
2022-12-22T23:53:16.639Z,96520.03
2022-12-22T23:55:48.034Z,96522.28
2022-12-22T23:58:16.460Z,96518.94
